sensor_id;sensor_type;location;lat;lon;timestamp;temperature;humidity
2861;DHT22;1438;50.922;6.704;2023-10-09T00:01:44;13.50;99.90
2861;DHT22;1438;50.922;6.704;2023-10-09T00:04:11;13.50;99.90
2861;DHT22;1438;50.922;6.704;2023-10-09T00:06:40;13.50;99.90
2861;DHT22;1438;50.922;6.704;2023-10-09T00:09:07;13.50;99.90
2861;DHT22;1438;50.922;6.704;2023-10-09T00:11:45;13.50;99.90
2861;DHT22;1438;50.922;6.704;2023-10-09T00:14:11;13.50;99.90
2861;DHT22;1438;50.922;6.704;2023-10-09T00:16:37;13.50;99.90
2861;DHT22;1438;50.922;6.704;2023-10-09T00:19:13;13.50;99.90
2861;DHT22;1438;50.922;6.704;2023-10-09T00:21:59;13.40;99.90
2861;DHT22;1438;50.922;6.704;2023-10-09T00:24:32;13.50;99.90
2861;DHT22;1438;50.922;6.704;2023-10-09T00:26:57;13.40;99.90
2861;DHT22;1438;50.922;6.704;2023-10-09T00:29:39;13.40;99.90
2861;DHT22;1438;50.922;6.704;2023-10-09T00:32:12;13.40;99.90
2861;DHT22;1438;50.922;6.704;2023-10-09T00:34:53;13.40;99.90
2861;DHT22;1438;50.922;6.704;2023-10-09T00:37:23;13.40;99.90
2861;DHT22;1438;50.922;6.704;2023-10-09T00:39:51;13.30;99.90
2861;DHT22;1438;50.922;6.704;2023-10-09T00:42:26;13.30;99.90
2861;DHT22;1438;50.922;6.704;2023-10-09T00:45:03;13.30;99.90
2861;DHT22;1438;50.922;6.704;2023-10-09T00:47:31;13.20;99.90
2861;DHT22;1438;50.922;6.704;2023-10-09T00:50:07;13.20;99.90
2861;DHT22;1438;50.922;6.704;2023-10-09T00:52:50;13.20;99.90
2861;DHT22;1438;50.922;6.704;2023-10-09T00:55:27;13.20;99.90
2861;DHT22;1438;50.922;6.704;2023-10-09T00:58:03;13.20;99.90
2861;DHT22;1438;50.922;6.704;2023-10-09T01:00:35;13.10;99.90
2861;DHT22;1438;50.922;6.704;2023-10-09T01:03:17;13.10;99.90
2861;DHT22;1438;50.922;6.704;2023-10-09T01:05:55;13.10;99.90
2861;DHT22;1438;50.922;6.704;2023-10-09T01:08:25;13.10;99.90
2861;DHT22;1438;50.922;6.704;2023-10-09T01:11:13;13.10;99.90
2861;DHT22;1438;50.922;6.704;2023-10-09T01:13:47;13.00;99.90
2861;DHT22;1438;50.922;6.704;2023-10-09T01:16:14;13.00;99.90
2861;DHT22;1438;50.922;6.704;2023-10-09T01:18:50;12.90;99.90
2861;DHT22;1438;50.922;6.704;2023-10-09T01:21:17;12.90;99.90
2861;DHT22;1438;50.922;6.704;2023-10-09T01:23:47;12.90;99.90
2861;DHT22;1438;50.922;6.704;2023-10-09T01:26:31;13.00;99.90
2861;DHT22;1438;50.922;6.704;2023-10-09T01:29:00;12.90;99.90
2861;DHT22;1438;50.922;6.704;2023-10-09T01:31:27;12.90;99.90
2861;DHT22;1438;50.922;6.704;2023-10-09T01:33:53;13.00;99.90
2861;DHT22;1438;50.922;6.704;2023-10-09T01:36:19;13.00;99.90
2861;DHT22;1438;50.922;6.704;2023-10-09T01:39:00;13.00;99.90
2861;DHT22;1438;50.922;6.704;2023-10-09T01:41:50;13.00;99.90
2861;DHT22;1438;50.922;6.704;2023-10-09T01:44:23;13.10;99.90
2861;DHT22;1438;50.922;6.704;2023-10-09T01:46:50;13.10;99.90
2861;DHT22;1438;50.922;6.704;2023-10-09T01:49:20;13.10;99.90
2861;DHT22;1438;50.922;6.704;2023-10-09T01:51:56;13.10;99.90
2861;DHT22;1438;50.922;6.704;2023-10-09T01:54:25;13.10;99.90
2861;DHT22;1438;50.922;6.704;2023-10-09T01:57:03;13.20;99.90
2861;DHT22;1438;50.922;6.704;2023-10-09T01:59:33;13.20;99.90
2861;DHT22;1438;50.922;6.704;2023-10-09T02:02:04;13.20;99.90
2861;DHT22;1438;50.922;6.704;2023-10-09T02:04:39;13.20;99.90
2861;DHT22;1438;50.922;6.704;2023-10-09T02:07:07;13.20;99.90
2861;DHT22;1438;50.922;6.704;2023-10-09T02:09:38;13.20;99.90
2861;DHT22;1438;50.922;6.704;2023-10-09T02:12:11;13.20;99.90
2861;DHT22;1438;50.922;6.704;2023-10-09T02:14:37;13.20;99.90
2861;DHT22;1438;50.922;6.704;2023-10-09T02:17:07;13.20;99.90
2861;DHT22;1438;50.922;6.704;2023-10-09T02:19:44;13.30;99.90
2861;DHT22;1438;50.922;6.704;2023-10-09T02:22:14;13.30;99.90
2861;DHT22;1438;50.922;6.704;2023-10-09T02:24:44;13.20;99.90
2861;DHT22;1438;50.922;6.704;2023-10-09T02:27:17;13.30;99.90
2861;DHT22;1438;50.922;6.704;2023-10-09T02:30:07;13.30;99.90
2861;DHT22;1438;50.922;6.704;2023-10-09T02:32:45;13.20;99.90
2861;DHT22;1438;50.922;6.704;2023-10-09T02:35:15;13.20;99.90
2861;DHT22;1438;50.922;6.704;2023-10-09T02:37:59;13.20;99.90
2861;DHT22;1438;50.922;6.704;2023-10-09T02:40:28;13.20;99.90
2861;DHT22;1438;50.922;6.704;2023-10-09T02:42:58;13.30;99.90
2861;DHT22;1438;50.922;6.704;2023-10-09T02:45:24;13.30;99.90
2861;DHT22;1438;50.922;6.704;2023-10-09T02:47:50;13.50;99.90
2861;DHT22;1438;50.922;6.704;2023-10-09T02:50:17;13.70;99.90
2861;DHT22;1438;50.922;6.704;2023-10-09T02:52:47;13.70;99.90
2861;DHT22;1438;50.922;6.704;2023-10-09T02:55:13;13.80;99.90
2861;DHT22;1438;50.922;6.704;2023-10-09T02:57:49;13.90;99.90
2861;DHT22;1438;50.922;6.704;2023-10-09T03:00:17;13.90;99.90
2861;DHT22;1438;50.922;6.704;2023-10-09T03:02:55;13.90;99.90
2861;DHT22;1438;50.922;6.704;2023-10-09T03:05:24;13.90;99.90
2861;DHT22;1438;50.922;6.704;2023-10-09T03:07:55;13.90;99.90
2861;DHT22;1438;50.922;6.704;2023-10-09T03:10:24;13.90;99.90
2861;DHT22;1438;50.922;6.704;2023-10-09T03:12:51;14.00;99.90
2861;DHT22;1438;50.922;6.704;2023-10-09T03:15:22;14.10;99.90
2861;DHT22;1438;50.922;6.704;2023-10-09T03:17:48;14.10;99.90
2861;DHT22;1438;50.922;6.704;2023-10-09T03:20:14;14.10;99.90
2861;DHT22;1438;50.922;6.704;2023-10-09T03:22:43;14.10;99.90
2861;DHT22;1438;50.922;6.704;2023-10-09T03:25:10;14.10;99.90
2861;DHT22;1438;50.922;6.704;2023-10-09T03:27:42;14.10;99.90
2861;DHT22;1438;50.922;6.704;2023-10-09T03:30:11;14.00;99.90
2861;DHT22;1438;50.922;6.704;2023-10-09T03:32:43;14.00;99.90
2861;DHT22;1438;50.922;6.704;2023-10-09T03:35:09;14.10;99.90
2861;DHT22;1438;50.922;6.704;2023-10-09T03:37:39;14.00;99.90
2861;DHT22;1438;50.922;6.704;2023-10-09T03:40:05;14.00;99.90
2861;DHT22;1438;50.922;6.704;2023-10-09T03:42:33;14.00;99.90
2861;DHT22;1438;50.922;6.704;2023-10-09T03:45:01;14.00;99.90
2861;DHT22;1438;50.922;6.704;2023-10-09T03:47:31;14.00;99.90
2861;DHT22;1438;50.922;6.704;2023-10-09T03:49:57;14.00;99.90
2861;DHT22;1438;50.922;6.704;2023-10-09T03:52:22;13.90;99.90
2861;DHT22;1438;50.922;6.704;2023-10-09T03:54:51;13.90;99.90
2861;DHT22;1438;50.922;6.704;2023-10-09T03:57:16;14.00;99.90
2861;DHT22;1438;50.922;6.704;2023-10-09T03:59:48;14.00;99.90
2861;DHT22;1438;50.922;6.704;2023-10-09T04:02:16;14.00;99.90
2861;DHT22;1438;50.922;6.704;2023-10-09T04:04:43;14.00;99.90
2861;DHT22;1438;50.922;6.704;2023-10-09T04:07:13;13.90;99.90
2861;DHT22;1438;50.922;6.704;2023-10-09T04:09:40;13.90;99.90
2861;DHT22;1438;50.922;6.704;2023-10-09T04:12:10;13.90;99.90
2861;DHT22;1438;50.922;6.704;2023-10-09T04:14:36;13.90;99.90
2861;DHT22;1438;50.922;6.704;2023-10-09T04:17:02;13.90;99.90
2861;DHT22;1438;50.922;6.704;2023-10-09T04:19:32;13.90;99.90
2861;DHT22;1438;50.922;6.704;2023-10-09T04:22:14;13.90;99.90
2861;DHT22;1438;50.922;6.704;2023-10-09T04:24:52;13.90;99.90
2861;DHT22;1438;50.922;6.704;2023-10-09T04:27:17;14.10;99.90
2861;DHT22;1438;50.922;6.704;2023-10-09T04:29:44;14.10;99.90
2861;DHT22;1438;50.922;6.704;2023-10-09T04:32:15;14.20;99.90
2861;DHT22;1438;50.922;6.704;2023-10-09T04:34:44;14.30;99.90
2861;DHT22;1438;50.922;6.704;2023-10-09T04:37:21;14.50;99.90
2861;DHT22;1438;50.922;6.704;2023-10-09T04:40:03;14.60;99.90
2861;DHT22;1438;50.922;6.704;2023-10-09T04:42:40;14.80;99.90
2861;DHT22;1438;50.922;6.704;2023-10-09T04:45:12;14.80;99.90
2861;DHT22;1438;50.922;6.704;2023-10-09T04:47:40;14.90;99.90
2861;DHT22;1438;50.922;6.704;2023-10-09T04:50:15;14.80;99.90
2861;DHT22;1438;50.922;6.704;2023-10-09T04:52:44;14.80;99.90
2861;DHT22;1438;50.922;6.704;2023-10-09T04:55:10;14.80;99.90
2861;DHT22;1438;50.922;6.704;2023-10-09T04:57:39;14.80;99.90
2861;DHT22;1438;50.922;6.704;2023-10-09T05:00:12;14.80;99.90
2861;DHT22;1438;50.922;6.704;2023-10-09T05:02:53;14.90;99.90
2861;DHT22;1438;50.922;6.704;2023-10-09T05:05:23;14.90;99.90
2861;DHT22;1438;50.922;6.704;2023-10-09T05:08:15;15.00;99.90
2861;DHT22;1438;50.922;6.704;2023-10-09T05:13:25;15.50;99.90
2861;DHT22;1438;50.922;6.704;2023-10-09T05:16:14;15.70;99.90
2861;DHT22;1438;50.922;6.704;2023-10-09T05:18:53;15.80;99.90
2861;DHT22;1438;50.922;6.704;2023-10-09T05:21:23;15.90;99.90
2861;DHT22;1438;50.922;6.704;2023-10-09T05:23:58;15.90;99.90
2861;DHT22;1438;50.922;6.704;2023-10-09T05:26:39;15.90;99.90
2861;DHT22;1438;50.922;6.704;2023-10-09T05:29:25;15.70;99.90
2861;DHT22;1438;50.922;6.704;2023-10-09T05:32:04;15.50;99.90
2861;DHT22;1438;50.922;6.704;2023-10-09T05:34:39;15.50;99.90
2861;DHT22;1438;50.922;6.704;2023-10-09T05:37:29;15.40;99.90
2861;DHT22;1438;50.922;6.704;2023-10-09T05:40:08;15.30;99.90
2861;DHT22;1438;50.922;6.704;2023-10-09T05:42:44;15.20;99.90
2861;DHT22;1438;50.922;6.704;2023-10-09T05:45:16;15.10;99.90
2861;DHT22;1438;50.922;6.704;2023-10-09T05:47:52;15.10;99.90
2861;DHT22;1438;50.922;6.704;2023-10-09T05:50:26;15.20;99.90
2861;DHT22;1438;50.922;6.704;2023-10-09T05:52:52;15.30;99.90
2861;DHT22;1438;50.922;6.704;2023-10-09T05:55:22;15.30;99.90
2861;DHT22;1438;50.922;6.704;2023-10-09T05:57:51;15.30;99.90
2861;DHT22;1438;50.922;6.704;2023-10-09T06:00:35;15.30;99.90
2861;DHT22;1438;50.922;6.704;2023-10-09T06:03:39;15.20;99.90
2861;DHT22;1438;50.922;6.704;2023-10-09T06:06:15;15.20;99.90
2861;DHT22;1438;50.922;6.704;2023-10-09T06:09:02;15.30;99.90
2861;DHT22;1438;50.922;6.704;2023-10-09T06:11:36;15.30;99.90
2861;DHT22;1438;50.922;6.704;2023-10-09T06:14:02;15.20;99.90
2861;DHT22;1438;50.922;6.704;2023-10-09T06:16:48;15.10;99.90
2861;DHT22;1438;50.922;6.704;2023-10-09T06:19:22;15.10;99.90
2861;DHT22;1438;50.922;6.704;2023-10-09T06:21:48;15.20;99.90
2861;DHT22;1438;50.922;6.704;2023-10-09T06:24:30;15.20;99.90
2861;DHT22;1438;50.922;6.704;2023-10-09T06:26:59;15.20;99.90
2861;DHT22;1438;50.922;6.704;2023-10-09T06:29:28;15.30;99.90
2861;DHT22;1438;50.922;6.704;2023-10-09T06:32:07;15.40;99.90
2861;DHT22;1438;50.922;6.704;2023-10-09T06:35:00;15.50;99.90
2861;DHT22;1438;50.922;6.704;2023-10-09T06:37:43;15.70;99.90
2861;DHT22;1438;50.922;6.704;2023-10-09T06:40:37;16.00;99.90
2861;DHT22;1438;50.922;6.704;2023-10-09T06:43:21;16.20;99.90
2861;DHT22;1438;50.922;6.704;2023-10-09T06:45:57;16.20;99.90
2861;DHT22;1438;50.922;6.704;2023-10-09T06:48:24;16.20;99.90
2861;DHT22;1438;50.922;6.704;2023-10-09T06:51:03;16.40;99.90
2861;DHT22;1438;50.922;6.704;2023-10-09T06:53:35;16.60;99.90
2861;DHT22;1438;50.922;6.704;2023-10-09T06:56:29;16.70;99.90
2861;DHT22;1438;50.922;6.704;2023-10-09T06:59:04;16.80;99.90
2861;DHT22;1438;50.922;6.704;2023-10-09T07:01:48;16.90;99.90
2861;DHT22;1438;50.922;6.704;2023-10-09T07:04:32;17.00;99.90
2861;DHT22;1438;50.922;6.704;2023-10-09T07:06:58;17.00;99.90
2861;DHT22;1438;50.922;6.704;2023-10-09T07:09:25;17.00;99.90
2861;DHT22;1438;50.922;6.704;2023-10-09T07:12:10;17.00;99.90
2861;DHT22;1438;50.922;6.704;2023-10-09T07:14:40;17.00;99.90
2861;DHT22;1438;50.922;6.704;2023-10-09T07:17:08;17.00;99.90
2861;DHT22;1438;50.922;6.704;2023-10-09T07:19:52;17.10;99.90
2861;DHT22;1438;50.922;6.704;2023-10-09T07:22:21;17.10;99.90
2861;DHT22;1438;50.922;6.704;2023-10-09T07:24:48;17.10;99.90
2861;DHT22;1438;50.922;6.704;2023-10-09T07:27:27;17.10;99.90
2861;DHT22;1438;50.922;6.704;2023-10-09T07:30:16;17.10;99.90
2861;DHT22;1438;50.922;6.704;2023-10-09T07:32:57;17.20;99.90
2861;DHT22;1438;50.922;6.704;2023-10-09T07:35:50;17.20;99.90
2861;DHT22;1438;50.922;6.704;2023-10-09T07:38:24;17.30;99.90
2861;DHT22;1438;50.922;6.704;2023-10-09T07:40:54;17.30;99.90
2861;DHT22;1438;50.922;6.704;2023-10-09T07:43:33;17.30;99.90
2861;DHT22;1438;50.922;6.704;2023-10-09T07:46:18;17.40;99.90
2861;DHT22;1438;50.922;6.704;2023-10-09T07:49:09;17.30;99.90
2861;DHT22;1438;50.922;6.704;2023-10-09T07:51:38;17.40;99.90
2861;DHT22;1438;50.922;6.704;2023-10-09T07:54:09;17.50;99.90
2861;DHT22;1438;50.922;6.704;2023-10-09T07:56:43;17.60;99.90
2861;DHT22;1438;50.922;6.704;2023-10-09T07:59:13;17.70;99.90
2861;DHT22;1438;50.922;6.704;2023-10-09T08:01:43;17.70;99.90
2861;DHT22;1438;50.922;6.704;2023-10-09T08:04:23;17.70;99.90
2861;DHT22;1438;50.922;6.704;2023-10-09T08:07:10;17.70;99.90
2861;DHT22;1438;50.922;6.704;2023-10-09T08:09:44;17.80;99.90
2861;DHT22;1438;50.922;6.704;2023-10-09T08:12:14;17.80;99.90
2861;DHT22;1438;50.922;6.704;2023-10-09T08:14:43;17.80;99.90
2861;DHT22;1438;50.922;6.704;2023-10-09T08:17:13;17.90;99.90
2861;DHT22;1438;50.922;6.704;2023-10-09T08:19:43;17.90;99.90
2861;DHT22;1438;50.922;6.704;2023-10-09T08:22:23;17.90;99.90
2861;DHT22;1438;50.922;6.704;2023-10-09T08:24:50;17.90;99.90
2861;DHT22;1438;50.922;6.704;2023-10-09T08:30:01;18.10;99.90
2861;DHT22;1438;50.922;6.704;2023-10-09T08:32:46;18.10;99.90
2861;DHT22;1438;50.922;6.704;2023-10-09T08:35:36;18.20;99.90
2861;DHT22;1438;50.922;6.704;2023-10-09T08:38:15;18.20;99.90
2861;DHT22;1438;50.922;6.704;2023-10-09T08:40:43;18.30;99.90
2861;DHT22;1438;50.922;6.704;2023-10-09T08:43:18;18.30;99.90
2861;DHT22;1438;50.922;6.704;2023-10-09T08:45:53;18.30;99.90
2861;DHT22;1438;50.922;6.704;2023-10-09T08:48:19;18.40;99.90
2861;DHT22;1438;50.922;6.704;2023-10-09T08:50:48;18.40;99.90
2861;DHT22;1438;50.922;6.704;2023-10-09T08:53:15;18.40;99.90
2861;DHT22;1438;50.922;6.704;2023-10-09T08:55:42;18.50;99.90
2861;DHT22;1438;50.922;6.704;2023-10-09T08:58:09;18.70;99.90
2861;DHT22;1438;50.922;6.704;2023-10-09T09:00:52;18.70;99.90
2861;DHT22;1438;50.922;6.704;2023-10-09T09:03:21;18.80;99.90
2861;DHT22;1438;50.922;6.704;2023-10-09T09:05:59;18.80;99.90
2861;DHT22;1438;50.922;6.704;2023-10-09T09:08:29;18.90;99.90
2861;DHT22;1438;50.922;6.704;2023-10-09T09:11:07;19.00;99.90
2861;DHT22;1438;50.922;6.704;2023-10-09T09:14:03;19.10;99.90
2861;DHT22;1438;50.922;6.704;2023-10-09T09:16:31;19.20;99.90
2861;DHT22;1438;50.922;6.704;2023-10-09T09:19:05;19.20;99.90
2861;DHT22;1438;50.922;6.704;2023-10-09T09:21:35;19.20;99.90
2861;DHT22;1438;50.922;6.704;2023-10-09T09:24:06;19.40;99.90
2861;DHT22;1438;50.922;6.704;2023-10-09T09:26:42;19.50;99.90
2861;DHT22;1438;50.922;6.704;2023-10-09T09:29:13;19.70;99.90
2861;DHT22;1438;50.922;6.704;2023-10-09T09:32:06;19.70;99.90
2861;DHT22;1438;50.922;6.704;2023-10-09T09:37:20;19.80;99.90
2861;DHT22;1438;50.922;6.704;2023-10-09T09:39:47;20.00;99.90
2861;DHT22;1438;50.922;6.704;2023-10-09T09:42:16;20.20;99.90
2861;DHT22;1438;50.922;6.704;2023-10-09T09:44:44;20.30;99.90
2861;DHT22;1438;50.922;6.704;2023-10-09T09:47:13;20.40;99.90
2861;DHT22;1438;50.922;6.704;2023-10-09T09:49:48;20.40;99.90
2861;DHT22;1438;50.922;6.704;2023-10-09T09:52:16;20.70;99.90
2861;DHT22;1438;50.922;6.704;2023-10-09T09:54:43;21.10;99.90
2861;DHT22;1438;50.922;6.704;2023-10-09T09:57:12;21.20;99.90
2861;DHT22;1438;50.922;6.704;2023-10-09T09:59:40;21.20;99.90
2861;DHT22;1438;50.922;6.704;2023-10-09T10:02:07;21.00;99.90
2861;DHT22;1438;50.922;6.704;2023-10-09T10:04:39;21.20;99.90
2861;DHT22;1438;50.922;6.704;2023-10-09T10:07:06;21.40;99.90
2861;DHT22;1438;50.922;6.704;2023-10-09T10:09:41;22.10;99.90
2861;DHT22;1438;50.922;6.704;2023-10-09T10:12:11;22.20;99.90
2861;DHT22;1438;50.922;6.704;2023-10-09T10:14:59;22.60;99.90
2861;DHT22;1438;50.922;6.704;2023-10-09T10:17:25;22.80;99.90
2861;DHT22;1438;50.922;6.704;2023-10-09T10:20:04;22.80;99.90
2861;DHT22;1438;50.922;6.704;2023-10-09T10:22:50;22.60;99.90
2861;DHT22;1438;50.922;6.704;2023-10-09T10:28:22;22.50;99.90
2861;DHT22;1438;50.922;6.704;2023-10-09T10:31:05;22.60;99.90
2861;DHT22;1438;50.922;6.704;2023-10-09T10:36:21;22.30;99.90
2861;DHT22;1438;50.922;6.704;2023-10-09T10:39:05;22.40;99.90
2861;DHT22;1438;50.922;6.704;2023-10-09T10:41:55;22.30;99.90
2861;DHT22;1438;50.922;6.704;2023-10-09T10:44:31;22.50;99.90
2861;DHT22;1438;50.922;6.704;2023-10-09T10:47:11;22.60;99.90
2861;DHT22;1438;50.922;6.704;2023-10-09T10:49:51;22.80;99.90
2861;DHT22;1438;50.922;6.704;2023-10-09T10:52:24;22.70;99.90
2861;DHT22;1438;50.922;6.704;2023-10-09T10:55:14;22.70;99.90
2861;DHT22;1438;50.922;6.704;2023-10-09T10:57:45;22.60;99.90
2861;DHT22;1438;50.922;6.704;2023-10-09T11:00:40;22.60;99.90
2861;DHT22;1438;50.922;6.704;2023-10-09T11:03:25;22.60;99.90
2861;DHT22;1438;50.922;6.704;2023-10-09T11:06:09;22.50;99.90
2861;DHT22;1438;50.922;6.704;2023-10-09T11:08:44;22.50;99.90
2861;DHT22;1438;50.922;6.704;2023-10-09T11:11:34;22.60;99.90
2861;DHT22;1438;50.922;6.704;2023-10-09T11:14:10;22.70;99.90
2861;DHT22;1438;50.922;6.704;2023-10-09T11:16:49;22.70;99.90
2861;DHT22;1438;50.922;6.704;2023-10-09T11:19:22;22.70;99.90
2861;DHT22;1438;50.922;6.704;2023-10-09T11:22:01;22.80;99.90
2861;DHT22;1438;50.922;6.704;2023-10-09T11:24:34;23.00;99.90
2861;DHT22;1438;50.922;6.704;2023-10-09T11:27:02;23.00;99.90
2861;DHT22;1438;50.922;6.704;2023-10-09T11:29:51;23.00;99.90
2861;DHT22;1438;50.922;6.704;2023-10-09T11:32:17;23.00;99.90
2861;DHT22;1438;50.922;6.704;2023-10-09T11:34:50;23.10;99.90
2861;DHT22;1438;50.922;6.704;2023-10-09T11:37:20;23.30;99.90
2861;DHT22;1438;50.922;6.704;2023-10-09T11:39:58;23.30;99.90
2861;DHT22;1438;50.922;6.704;2023-10-09T11:42:26;23.00;99.90
2861;DHT22;1438;50.922;6.704;2023-10-09T11:45:05;23.00;99.90
2861;DHT22;1438;50.922;6.704;2023-10-09T11:47:46;23.10;99.90
2861;DHT22;1438;50.922;6.704;2023-10-09T11:53:08;23.00;99.90
2861;DHT22;1438;50.922;6.704;2023-10-09T11:55:37;22.80;99.90
2861;DHT22;1438;50.922;6.704;2023-10-09T11:58:04;22.90;99.90
2861;DHT22;1438;50.922;6.704;2023-10-09T12:00:31;22.80;99.90
2861;DHT22;1438;50.922;6.704;2023-10-09T12:03:08;22.80;99.90
2861;DHT22;1438;50.922;6.704;2023-10-09T12:05:34;22.90;99.90
2861;DHT22;1438;50.922;6.704;2023-10-09T12:08:01;22.90;99.90
2861;DHT22;1438;50.922;6.704;2023-10-09T12:10:27;22.90;99.90
2861;DHT22;1438;50.922;6.704;2023-10-09T12:12:55;22.80;99.90
2861;DHT22;1438;50.922;6.704;2023-10-09T12:15:24;22.80;99.90
2861;DHT22;1438;50.922;6.704;2023-10-09T12:17:49;22.80;99.90
2861;DHT22;1438;50.922;6.704;2023-10-09T12:20:18;22.70;99.90
2861;DHT22;1438;50.922;6.704;2023-10-09T12:23:01;22.60;99.90
2861;DHT22;1438;50.922;6.704;2023-10-09T12:25:30;22.80;99.90
2861;DHT22;1438;50.922;6.704;2023-10-09T12:27:57;22.60;99.90
2861;DHT22;1438;50.922;6.704;2023-10-09T12:30:24;22.70;99.90
2861;DHT22;1438;50.922;6.704;2023-10-09T12:32:57;22.60;99.90
2861;DHT22;1438;50.922;6.704;2023-10-09T12:35:24;22.90;99.90
2861;DHT22;1438;50.922;6.704;2023-10-09T12:37:51;22.70;99.90
2861;DHT22;1438;50.922;6.704;2023-10-09T12:40:17;22.80;99.90
2861;DHT22;1438;50.922;6.704;2023-10-09T12:42:52;22.90;99.90
2861;DHT22;1438;50.922;6.704;2023-10-09T12:45:19;22.90;99.90
2861;DHT22;1438;50.922;6.704;2023-10-09T12:47:54;22.90;99.90
2861;DHT22;1438;50.922;6.704;2023-10-09T12:50:34;22.90;99.90
2861;DHT22;1438;50.922;6.704;2023-10-09T12:53:00;22.90;99.90
2861;DHT22;1438;50.922;6.704;2023-10-09T12:55:38;22.90;99.90
2861;DHT22;1438;50.922;6.704;2023-10-09T12:58:08;22.70;99.90
2861;DHT22;1438;50.922;6.704;2023-10-09T13:00:35;22.50;99.90
2861;DHT22;1438;50.922;6.704;2023-10-09T13:03:06;22.40;99.90
2861;DHT22;1438;50.922;6.704;2023-10-09T13:05:53;22.50;99.90
2861;DHT22;1438;50.922;6.704;2023-10-09T13:08:23;22.60;99.90
2861;DHT22;1438;50.922;6.704;2023-10-09T13:10:53;22.50;99.90
2861;DHT22;1438;50.922;6.704;2023-10-09T13:13:29;22.60;99.90
2861;DHT22;1438;50.922;6.704;2023-10-09T13:16:12;22.50;99.90
2861;DHT22;1438;50.922;6.704;2023-10-09T13:18:40;22.50;99.90
2861;DHT22;1438;50.922;6.704;2023-10-09T13:21:06;22.50;99.90
2861;DHT22;1438;50.922;6.704;2023-10-09T13:23:32;22.40;99.90
2861;DHT22;1438;50.922;6.704;2023-10-09T13:26:16;22.30;99.90
2861;DHT22;1438;50.922;6.704;2023-10-09T13:28:48;22.30;99.90
2861;DHT22;1438;50.922;6.704;2023-10-09T13:31:14;22.30;99.90
2861;DHT22;1438;50.922;6.704;2023-10-09T13:33:41;22.30;99.90
2861;DHT22;1438;50.922;6.704;2023-10-09T13:36:08;22.30;99.90
2861;DHT22;1438;50.922;6.704;2023-10-09T13:38:43;22.30;99.90
2861;DHT22;1438;50.922;6.704;2023-10-09T13:41:09;22.20;99.90
2861;DHT22;1438;50.922;6.704;2023-10-09T13:43:39;22.20;99.90
2861;DHT22;1438;50.922;6.704;2023-10-09T13:46:09;22.10;99.90
2861;DHT22;1438;50.922;6.704;2023-10-09T13:48:39;22.20;99.90
2861;DHT22;1438;50.922;6.704;2023-10-09T13:51:09;22.20;99.90
2861;DHT22;1438;50.922;6.704;2023-10-09T13:53:45;22.30;99.90
2861;DHT22;1438;50.922;6.704;2023-10-09T13:56:15;22.10;99.90
2861;DHT22;1438;50.922;6.704;2023-10-09T13:58:45;22.10;99.90
2861;DHT22;1438;50.922;6.704;2023-10-09T14:01:10;22.10;99.90
2861;DHT22;1438;50.922;6.704;2023-10-09T14:03:36;22.10;99.90
2861;DHT22;1438;50.922;6.704;2023-10-09T14:06:05;22.10;99.90
2861;DHT22;1438;50.922;6.704;2023-10-09T14:08:38;22.10;99.90
2861;DHT22;1438;50.922;6.704;2023-10-09T14:11:09;22.10;99.90
2861;DHT22;1438;50.922;6.704;2023-10-09T14:13:41;22.20;99.90
2861;DHT22;1438;50.922;6.704;2023-10-09T14:16:08;22.10;99.90
2861;DHT22;1438;50.922;6.704;2023-10-09T14:18:50;22.10;99.90
2861;DHT22;1438;50.922;6.704;2023-10-09T14:21:21;22.10;99.90
2861;DHT22;1438;50.922;6.704;2023-10-09T14:23:47;22.20;99.90
2861;DHT22;1438;50.922;6.704;2023-10-09T14:26:14;22.30;99.90
2861;DHT22;1438;50.922;6.704;2023-10-09T14:28:39;22.50;99.90
2861;DHT22;1438;50.922;6.704;2023-10-09T14:31:08;22.50;99.90
2861;DHT22;1438;50.922;6.704;2023-10-09T14:33:37;22.30;99.90
2861;DHT22;1438;50.922;6.704;2023-10-09T14:36:03;22.40;99.90
2861;DHT22;1438;50.922;6.704;2023-10-09T14:38:31;22.30;99.90
2861;DHT22;1438;50.922;6.704;2023-10-09T14:40:58;22.20;99.90
2861;DHT22;1438;50.922;6.704;2023-10-09T14:43:25;22.20;99.90
2861;DHT22;1438;50.922;6.704;2023-10-09T14:45:55;22.10;99.90
2861;DHT22;1438;50.922;6.704;2023-10-09T14:48:21;22.20;99.90
2861;DHT22;1438;50.922;6.704;2023-10-09T14:50:55;22.30;99.90
2861;DHT22;1438;50.922;6.704;2023-10-09T14:53:30;22.30;99.90
2861;DHT22;1438;50.922;6.704;2023-10-09T14:55:56;22.10;99.90
2861;DHT22;1438;50.922;6.704;2023-10-09T14:58:22;22.00;99.90
2861;DHT22;1438;50.922;6.704;2023-10-09T15:00:54;22.00;99.90
2861;DHT22;1438;50.922;6.704;2023-10-09T15:03:19;22.10;99.90
2861;DHT22;1438;50.922;6.704;2023-10-09T15:05:46;22.10;99.90
2861;DHT22;1438;50.922;6.704;2023-10-09T15:08:11;22.10;99.90
2861;DHT22;1438;50.922;6.704;2023-10-09T15:10:47;22.10;99.90
2861;DHT22;1438;50.922;6.704;2023-10-09T15:13:17;22.20;99.90
2861;DHT22;1438;50.922;6.704;2023-10-09T15:15:45;22.20;99.90
2861;DHT22;1438;50.922;6.704;2023-10-09T15:18:16;22.20;99.90
2861;DHT22;1438;50.922;6.704;2023-10-09T15:20:44;22.20;99.90
2861;DHT22;1438;50.922;6.704;2023-10-09T15:23:10;22.30;99.90
2861;DHT22;1438;50.922;6.704;2023-10-09T15:25:36;22.00;99.90
2861;DHT22;1438;50.922;6.704;2023-10-09T15:28:05;22.00;99.90
2861;DHT22;1438;50.922;6.704;2023-10-09T15:30:33;21.90;99.90
2861;DHT22;1438;50.922;6.704;2023-10-09T15:32:59;21.80;99.90
2861;DHT22;1438;50.922;6.704;2023-10-09T15:35:27;21.90;99.90
2861;DHT22;1438;50.922;6.704;2023-10-09T15:37:54;21.90;99.90
2861;DHT22;1438;50.922;6.704;2023-10-09T15:40:19;22.00;99.90
2861;DHT22;1438;50.922;6.704;2023-10-09T15:42:49;22.00;99.90
2861;DHT22;1438;50.922;6.704;2023-10-09T15:45:16;22.10;99.90
2861;DHT22;1438;50.922;6.704;2023-10-09T15:47:42;22.00;99.90
2861;DHT22;1438;50.922;6.704;2023-10-09T15:50:08;22.00;99.90
2861;DHT22;1438;50.922;6.704;2023-10-09T15:52:35;21.90;99.90
2861;DHT22;1438;50.922;6.704;2023-10-09T15:55:03;21.90;99.90
2861;DHT22;1438;50.922;6.704;2023-10-09T15:57:31;21.70;99.90
2861;DHT22;1438;50.922;6.704;2023-10-09T15:59:57;21.60;99.90
2861;DHT22;1438;50.922;6.704;2023-10-09T16:02:23;21.50;99.90
2861;DHT22;1438;50.922;6.704;2023-10-09T16:04:50;21.40;99.90
2861;DHT22;1438;50.922;6.704;2023-10-09T16:07:15;21.30;99.90
2861;DHT22;1438;50.922;6.704;2023-10-09T16:09:41;21.20;99.90
2861;DHT22;1438;50.922;6.704;2023-10-09T16:12:07;21.10;99.90
2861;DHT22;1438;50.922;6.704;2023-10-09T16:14:33;21.00;99.90
2861;DHT22;1438;50.922;6.704;2023-10-09T16:17:00;20.80;99.90
2861;DHT22;1438;50.922;6.704;2023-10-09T16:19:27;20.60;99.90
2861;DHT22;1438;50.922;6.704;2023-10-09T16:21:58;20.50;99.90
2861;DHT22;1438;50.922;6.704;2023-10-09T16:24:26;20.40;99.90
2861;DHT22;1438;50.922;6.704;2023-10-09T16:26:54;20.30;99.90
2861;DHT22;1438;50.922;6.704;2023-10-09T16:29:20;20.30;99.90
2861;DHT22;1438;50.922;6.704;2023-10-09T16:31:47;20.30;99.90
2861;DHT22;1438;50.922;6.704;2023-10-09T16:34:14;20.20;99.90
2861;DHT22;1438;50.922;6.704;2023-10-09T16:36:40;20.20;99.90
2861;DHT22;1438;50.922;6.704;2023-10-09T16:39:07;20.10;99.90
2861;DHT22;1438;50.922;6.704;2023-10-09T16:41:45;20.10;99.90
2861;DHT22;1438;50.922;6.704;2023-10-09T16:44:10;20.20;99.90
2861;DHT22;1438;50.922;6.704;2023-10-09T16:46:36;20.10;99.90
2861;DHT22;1438;50.922;6.704;2023-10-09T16:49:02;20.10;99.90
2861;DHT22;1438;50.922;6.704;2023-10-09T16:51:31;20.10;99.90
2861;DHT22;1438;50.922;6.704;2023-10-09T16:53:56;20.00;99.90